TFM - Tactical Decision Aid (Experimental) INFO Settings

ID: Runway Winds: CIG/VIS Threshold: METAR Board: Map:

Katl - Atlanta-Hartsfield Jackson Intl

Updated at: 1704 UTC 27 Apr 2015
Latest TAF at: 1548 UTC 27 Apr 2015

TAF Board

Time1652Z27/18Z27/19Z27/20Z27/21Z27/22Z27/23Z28/00Z28/01Z28/02Z28/03Z28/04Z28/05Z28/06Z
TypeOBSPRVLPRVLPRVLPRVLPRVLPRVLPRVLPRVLPRVLPRVLPRVLPRVLPRVL
VIS10>6>6>6>6>6>6>6>6>6>6>6>6>6
CIG250------------200200200200200120120
CoverBKNSCTSCTSCTSCTSCTSCTBKNBKNBKNBKNBKNBKNBKN
FltCatVFRVFRVFRVFRVFRVFRVFRVFRVFRVFRVFRVFRVFRVFR
WX----------------------------
WDirVRB3503503503503503503403403403403403030
WSpd41010101010108888844
WGst----------------------------
TAF
KATL 271548Z 2716/2818 35007KT P6SM SCT035 SCT250
  FM271800 35010KT P6SM FEW040 SCT250
  FM280000 34008KT P6SM BKN200
  FM280500 03004KT P6SM BKN120
  FM281400 09009G15KT P6SM SCT040 BKN250


METAR
KATL 271652Z VRB04KT 10SM FEW050 SCT150 BKN250 20/09 A2988 RMK AO2 SLP114 T02000089
KATL 271552Z 36009KT 10SM FEW032 SCT150 SCT250 18/09 A2990 RMK AO2 SLP120 T01830094

TAF/METAR Board Legend

Potential Impact
  None Marginal Slight Moderate High
Visibility (sm) > ≤X≤ <
Ceiling (100 ft) > ≤X≤ <
Wind Speed (kt) <10 10≤X<20 20≤X<30 ≥30
Wind Gust (kt) <15 15≤X<25 25≤X<35 ≥35
Weather No Wx Reported VCTS -TS,-FZRA TS,FZRA +TS,+FZRA